sensor_id;sensor_type;location;lat;lon;timestamp;pressure;altitude;pressure_sealevel;temperature;humidity
5812;BME280;2932;52.400;9.558;2024-02-16T00:01:13;100587.09;;;19.09;62.38
5812;BME280;2932;52.400;9.558;2024-02-16T00:03:39;100587.03;;;19.23;62.01
5812;BME280;2932;52.400;9.558;2024-02-16T00:06:05;100584.28;;;19.09;62.04
5812;BME280;2932;52.400;9.558;2024-02-16T00:08:30;100595.53;;;18.91;62.19
5812;BME280;2932;52.400;9.558;2024-02-16T00:10:56;100595.94;;;19.04;61.97
5812;BME280;2932;52.400;9.558;2024-02-16T00:13:21;100583.91;;;19.07;61.79
5812;BME280;2932;52.400;9.558;2024-02-16T00:15:47;100589.09;;;19.16;61.69
5812;BME280;2932;52.400;9.558;2024-02-16T00:18:12;100580.72;;;19.02;62.11
5812;BME280;2932;52.400;9.558;2024-02-16T00:20:38;100575.09;;;18.98;61.94
5812;BME280;2932;52.400;9.558;2024-02-16T00:23:03;100580.72;;;19.02;61.94
5812;BME280;2932;52.400;9.558;2024-02-16T00:25:29;100573.53;;;18.86;62.31
5812;BME280;2932;52.400;9.558;2024-02-16T00:27:54;100589.53;;;18.82;62.26
5812;BME280;2932;52.400;9.558;2024-02-16T00:30:20;100585.97;;;18.78;62.56
5812;BME280;2932;52.400;9.558;2024-02-16T00:32:45;100577.53;;;18.85;62.61
5812;BME280;2932;52.400;9.558;2024-02-16T00:35:11;100589.16;;;18.84;62.48
5812;BME280;2932;52.400;9.558;2024-02-16T00:37:37;100569.91;;;18.89;62.19
5812;BME280;2932;52.400;9.558;2024-02-16T00:40:03;100573.50;;;18.93;62.01
5812;BME280;2932;52.400;9.558;2024-02-16T00:42:29;100562.28;;;18.93;62.26
5812;BME280;2932;52.400;9.558;2024-02-16T00:44:56;100569.53;;;18.80;62.07
5812;BME280;2932;52.400;9.558;2024-02-16T00:47:22;100565.50;;;18.88;62.62
5812;BME280;2932;52.400;9.558;2024-02-16T00:49:48;100572.38;;;18.77;62.37
5812;BME280;2932;52.400;9.558;2024-02-16T00:52:14;100571.56;;;18.73;62.54
5812;BME280;2932;52.400;9.558;2024-02-16T00:54:39;100567.97;;;18.65;62.82
5812;BME280;2932;52.400;9.558;2024-02-16T00:57:04;100573.16;;;18.74;62.73
5812;BME280;2932;52.400;9.558;2024-02-16T00:59:30;100563.13;;;18.55;62.86
5812;BME280;2932;52.400;9.558;2024-02-16T01:01:55;100563.94;;;18.52;62.94
5812;BME280;2932;52.400;9.558;2024-02-16T01:04:20;100553.53;;;18.49;63.29
5812;BME280;2932;52.400;9.558;2024-02-16T01:06:46;100539.97;;;18.37;63.42
5812;BME280;2932;52.400;9.558;2024-02-16T01:09:11;100539.53;;;18.45;63.33
5812;BME280;2932;52.400;9.558;2024-02-16T01:11:40;100539.13;;;18.40;63.27
5812;BME280;2932;52.400;9.558;2024-02-16T01:14:05;100541.91;;;18.50;62.81
5812;BME280;2932;52.400;9.558;2024-02-16T01:16:30;100533.53;;;18.47;63.04
5812;BME280;2932;52.400;9.558;2024-02-16T01:18:56;100540.34;;;18.39;63.21
5812;BME280;2932;52.400;9.558;2024-02-16T01:21:23;100535.91;;;18.45;63.07
5812;BME280;2932;52.400;9.558;2024-02-16T01:23:49;100541.13;;;18.53;63.00
5812;BME280;2932;52.400;9.558;2024-02-16T01:26:14;100536.75;;;18.35;63.05
5812;BME280;2932;52.400;9.558;2024-02-16T01:28:40;100530.75;;;18.25;63.65
5812;BME280;2932;52.400;9.558;2024-02-16T01:31:05;100531.16;;;18.38;63.11
5812;BME280;2932;52.400;9.558;2024-02-16T01:33:30;100525.13;;;18.40;62.84
5812;BME280;2932;52.400;9.558;2024-02-16T01:35:59;100522.34;;;18.25;63.19
5812;BME280;2932;52.400;9.558;2024-02-16T01:38:24;100535.94;;;18.23;62.83
5812;BME280;2932;52.400;9.558;2024-02-16T01:40:50;100536.75;;;18.35;62.76
5812;BME280;2932;52.400;9.558;2024-02-16T01:43:19;100535.16;;;18.26;62.72
5812;BME280;2932;52.400;9.558;2024-02-16T01:45:45;100529.94;;;18.25;63.01
5812;BME280;2932;52.400;9.558;2024-02-16T01:48:10;100527.53;;;18.16;63.34
5812;BME280;2932;52.400;9.558;2024-02-16T01:50:36;100523.16;;;18.29;63.54
5812;BME280;2932;52.400;9.558;2024-02-16T01:53:01;100529.94;;;18.32;63.42
5812;BME280;2932;52.400;9.558;2024-02-16T01:55:26;100522.75;;;18.31;63.24
5812;BME280;2932;52.400;9.558;2024-02-16T01:57:52;100534.75;;;18.39;63.22
5812;BME280;2932;52.400;9.558;2024-02-16T02:00:17;100527.13;;;18.43;62.89
5812;BME280;2932;52.400;9.558;2024-02-16T02:02:46;100518.31;;;18.41;62.77
5812;BME280;2932;52.400;9.558;2024-02-16T02:05:12;100513.50;;;18.41;62.69
5812;BME280;2932;52.400;9.558;2024-02-16T02:07:38;100512.34;;;18.21;63.05
5812;BME280;2932;52.400;9.558;2024-02-16T02:10:03;100500.75;;;18.22;62.85
5812;BME280;2932;52.400;9.558;2024-02-16T02:12:29;100499.53;;;18.30;62.96
5812;BME280;2932;52.400;9.558;2024-02-16T02:14:54;100504.75;;;18.14;62.67
5812;BME280;2932;52.400;9.558;2024-02-16T02:17:20;100501.94;;;18.25;62.24
5812;BME280;2932;52.400;9.558;2024-02-16T02:19:46;100506.75;;;18.21;62.19
5812;BME280;2932;52.400;9.558;2024-02-16T02:22:15;100509.91;;;18.41;61.67
5812;BME280;2932;52.400;9.558;2024-02-16T02:24:42;100517.94;;;18.39;61.77
5812;BME280;2932;52.400;9.558;2024-02-16T02:27:09;100505.13;;;18.38;61.25
5812;BME280;2932;52.400;9.558;2024-02-16T02:29:34;100502.34;;;18.38;61.51
5812;BME280;2932;52.400;9.558;2024-02-16T02:31:59;100508.34;;;18.36;61.16
5812;BME280;2932;52.400;9.558;2024-02-16T02:34:25;100491.13;;;18.38;61.52
5812;BME280;2932;52.400;9.558;2024-02-16T02:36:50;100491.53;;;18.36;61.58
5812;BME280;2932;52.400;9.558;2024-02-16T02:39:16;100496.34;;;18.39;61.43
5812;BME280;2932;52.400;9.558;2024-02-16T02:41:41;100502.75;;;18.32;61.90
5812;BME280;2932;52.400;9.558;2024-02-16T02:44:06;100496.34;;;18.36;61.68
5812;BME280;2932;52.400;9.558;2024-02-16T02:46:32;100488.75;;;18.29;61.83
5812;BME280;2932;52.400;9.558;2024-02-16T02:48:57;100475.13;;;18.27;61.93
5812;BME280;2932;52.400;9.558;2024-02-16T02:51:22;100478.34;;;18.29;62.23
5812;BME280;2932;52.400;9.558;2024-02-16T02:53:48;100474.75;;;18.18;62.12
5812;BME280;2932;52.400;9.558;2024-02-16T02:56:14;100463.13;;;18.30;61.85
5812;BME280;2932;52.400;9.558;2024-02-16T02:58:39;100465.13;;;18.30;62.02
5812;BME280;2932;52.400;9.558;2024-02-16T03:01:05;100463.13;;;18.20;61.75
5812;BME280;2932;52.400;9.558;2024-02-16T03:03:32;100461.13;;;18.27;61.59
5812;BME280;2932;52.400;9.558;2024-02-16T03:05:58;100458.31;;;18.27;61.81
5812;BME280;2932;52.400;9.558;2024-02-16T03:08:24;100449.13;;;18.20;61.60
5812;BME280;2932;52.400;9.558;2024-02-16T03:10:50;100457.13;;;18.25;61.58
5812;BME280;2932;52.400;9.558;2024-02-16T03:13:15;100459.13;;;18.17;61.31
5812;BME280;2932;52.400;9.558;2024-02-16T03:15:43;100452.75;;;18.13;61.16
5812;BME280;2932;52.400;9.558;2024-02-16T03:18:08;100454.34;;;18.18;60.92
5812;BME280;2932;52.400;9.558;2024-02-16T03:20:37;100449.53;;;18.25;60.98
5812;BME280;2932;52.400;9.558;2024-02-16T03:23:02;100455.13;;;18.29;60.49
5812;BME280;2932;52.400;9.558;2024-02-16T03:25:28;100447.94;;;18.24;60.36
5812;BME280;2932;52.400;9.558;2024-02-16T03:27:54;100449.94;;;18.31;60.65
5812;BME280;2932;52.400;9.558;2024-02-16T03:30:19;100455.94;;;18.26;60.51
5812;BME280;2932;52.400;9.558;2024-02-16T03:32:51;100449.94;;;18.24;60.64
5812;BME280;2932;52.400;9.558;2024-02-16T03:35:18;100449.91;;;18.38;59.96
5812;BME280;2932;52.400;9.558;2024-02-16T03:37:43;100448.69;;;18.43;59.68
5812;BME280;2932;52.400;9.558;2024-02-16T03:40:09;100446.31;;;18.38;59.85
5812;BME280;2932;52.400;9.558;2024-02-16T03:42:36;100438.72;;;18.35;60.13
5812;BME280;2932;52.400;9.558;2024-02-16T03:45:02;100446.28;;;18.45;59.72
5812;BME280;2932;52.400;9.558;2024-02-16T03:47:28;100443.06;;;18.46;59.33
5812;BME280;2932;52.400;9.558;2024-02-16T03:49:53;100441.47;;;18.49;59.28
5812;BME280;2932;52.400;9.558;2024-02-16T03:52:18;100447.88;;;18.49;59.21
5812;BME280;2932;52.400;9.558;2024-02-16T03:54:44;100441.47;;;18.49;59.39
5812;BME280;2932;52.400;9.558;2024-02-16T03:57:12;100443.47;;;18.48;59.47
5812;BME280;2932;52.400;9.558;2024-02-16T03:59:38;100436.66;;;18.46;59.34
5812;BME280;2932;52.400;9.558;2024-02-16T04:02:03;100442.31;;;18.35;59.20
5812;BME280;2932;52.400;9.558;2024-02-16T04:04:28;100443.13;;;18.32;59.84
5812;BME280;2932;52.400;9.558;2024-02-16T04:06:54;100439.13;;;18.37;59.63
5812;BME280;2932;52.400;9.558;2024-02-16T04:09:19;100436.72;;;18.35;59.32
5812;BME280;2932;52.400;9.558;2024-02-16T04:11:47;100453.53;;;18.31;59.59
5812;BME280;2932;52.400;9.558;2024-02-16T04:14:13;100443.94;;;18.15;59.86
5812;BME280;2932;52.400;9.558;2024-02-16T04:16:38;100439.94;;;18.19;59.70
5812;BME280;2932;52.400;9.558;2024-02-16T04:19:03;100432.31;;;18.30;59.73
5812;BME280;2932;52.400;9.558;2024-02-16T04:21:29;100427.91;;;18.29;58.87
5812;BME280;2932;52.400;9.558;2024-02-16T04:23:54;100426.72;;;18.27;59.65
5812;BME280;2932;52.400;9.558;2024-02-16T04:26:20;100426.31;;;18.32;59.30
5812;BME280;2932;52.400;9.558;2024-02-16T04:28:45;100429.13;;;18.25;59.28
5812;BME280;2932;52.400;9.558;2024-02-16T04:31:10;100431.88;;;18.43;59.24
5812;BME280;2932;52.400;9.558;2024-02-16T04:33:36;100428.66;;;18.41;58.84
5812;BME280;2932;52.400;9.558;2024-02-16T04:36:01;100427.88;;;18.40;59.05
5812;BME280;2932;52.400;9.558;2024-02-16T04:38:26;100416.69;;;18.37;59.38
5812;BME280;2932;52.400;9.558;2024-02-16T04:40:52;100415.91;;;18.32;59.52
5812;BME280;2932;52.400;9.558;2024-02-16T04:43:17;100417.47;;;18.41;59.28
5812;BME280;2932;52.400;9.558;2024-02-16T04:45:42;100421.47;;;18.47;59.07
5812;BME280;2932;52.400;9.558;2024-02-16T04:48:08;100426.72;;;18.38;59.07
5812;BME280;2932;52.400;9.558;2024-02-16T04:50:34;100423.03;;;18.55;58.80
5812;BME280;2932;52.400;9.558;2024-02-16T04:53:00;100421.03;;;18.52;58.41
5812;BME280;2932;52.400;9.558;2024-02-16T04:55:30;100423.91;;;18.38;58.79
5812;BME280;2932;52.400;9.558;2024-02-16T04:57:56;100416.63;;;18.58;58.54
5812;BME280;2932;52.400;9.558;2024-02-16T05:00:22;100425.44;;;18.56;58.70
5812;BME280;2932;52.400;9.558;2024-02-16T05:02:47;100422.63;;;18.56;58.71
5812;BME280;2932;52.400;9.558;2024-02-16T05:05:12;100430.66;;;18.61;58.25
5812;BME280;2932;52.400;9.558;2024-02-16T05:07:38;100427.44;;;18.67;58.50
5812;BME280;2932;52.400;9.558;2024-02-16T05:10:08;100426.59;;;18.77;58.39
5812;BME280;2932;52.400;9.558;2024-02-16T05:12:33;100431.06;;;18.60;58.21
5812;BME280;2932;52.400;9.558;2024-02-16T05:14:59;100431.06;;;18.63;58.59
5812;BME280;2932;52.400;9.558;2024-02-16T05:17:24;100430.25;;;18.67;58.01
5812;BME280;2932;52.400;9.558;2024-02-16T05:19:50;100428.72;;;18.30;58.99
5812;BME280;2932;52.400;9.558;2024-02-16T05:22:15;100425.06;;;18.51;58.65
5812;BME280;2932;52.400;9.558;2024-02-16T05:24:42;100423.81;;;18.59;58.62
5812;BME280;2932;52.400;9.558;2024-02-16T05:27:07;100423.44;;;18.64;58.20
5812;BME280;2932;52.400;9.558;2024-02-16T05:29:33;100428.63;;;18.69;57.82
5812;BME280;2932;52.400;9.558;2024-02-16T05:31:58;100416.63;;;18.72;57.82
5812;BME280;2932;52.400;9.558;2024-02-16T05:34:23;100419.03;;;18.63;58.11
5812;BME280;2932;52.400;9.558;2024-02-16T05:36:50;100413.03;;;18.68;57.36
5812;BME280;2932;52.400;9.558;2024-02-16T05:39:15;100411.00;;;18.76;57.38
5812;BME280;2932;52.400;9.558;2024-02-16T05:41:52;100406.59;;;18.75;57.66
5812;BME280;2932;52.400;9.558;2024-02-16T05:44:18;100408.63;;;18.67;57.91
5812;BME280;2932;52.400;9.558;2024-02-16T05:46:44;100414.25;;;18.60;58.04
5812;BME280;2932;52.400;9.558;2024-02-16T05:49:10;100397.81;;;18.65;57.67
5812;BME280;2932;52.400;9.558;2024-02-16T05:51:36;100403.03;;;18.53;58.18
5812;BME280;2932;52.400;9.558;2024-02-16T05:54:07;100414.25;;;18.60;58.08
5812;BME280;2932;52.400;9.558;2024-02-16T05:56:36;100406.63;;;18.60;57.46
5812;BME280;2932;52.400;9.558;2024-02-16T05:59:04;100409.00;;;18.69;57.90
5812;BME280;2932;52.400;9.558;2024-02-16T06:01:30;100395.81;;;18.62;57.68
5812;BME280;2932;52.400;9.558;2024-02-16T06:03:56;100396.22;;;18.68;57.59
5812;BME280;2932;52.400;9.558;2024-02-16T06:06:21;100390.97;;;18.74;57.60
5812;BME280;2932;52.400;9.558;2024-02-16T06:08:46;100398.22;;;18.64;57.76
5812;BME280;2932;52.400;9.558;2024-02-16T06:11:12;100400.59;;;18.69;57.76
5812;BME280;2932;52.400;9.558;2024-02-16T06:13:37;100399.00;;;18.68;57.73
5812;BME280;2932;52.400;9.558;2024-02-16T06:16:05;100401.84;;;18.61;57.90
5812;BME280;2932;52.400;9.558;2024-02-16T06:18:34;100396.63;;;18.56;58.24
5812;BME280;2932;52.400;9.558;2024-02-16T06:20:59;100408.66;;;18.60;57.87
5812;BME280;2932;52.400;9.558;2024-02-16T06:23:24;100394.69;;;18.39;58.15
5812;BME280;2932;52.400;9.558;2024-02-16T06:25:50;100393.41;;;18.57;58.34
5812;BME280;2932;52.400;9.558;2024-02-16T06:28:15;100401.84;;;18.43;58.47
5812;BME280;2932;52.400;9.558;2024-02-16T06:30:41;100404.63;;;18.54;58.08
5812;BME280;2932;52.400;9.558;2024-02-16T06:33:06;100405.84;;;18.49;58.34
5812;BME280;2932;52.400;9.558;2024-02-16T06:35:31;100402.22;;;18.63;57.86
5812;BME280;2932;52.400;9.558;2024-02-16T06:37:57;100408.25;;;18.61;58.24
5812;BME280;2932;52.400;9.558;2024-02-16T06:40:22;100406.22;;;18.65;57.99
5812;BME280;2932;52.400;9.558;2024-02-16T06:42:48;100431.06;;;18.46;58.50
5812;BME280;2932;52.400;9.558;2024-02-16T06:45:13;100419.84;;;18.60;58.15
5812;BME280;2932;52.400;9.558;2024-02-16T06:47:39;100424.25;;;18.64;57.75
5812;BME280;2932;52.400;9.558;2024-02-16T06:50:05;100425.03;;;18.69;57.82
5812;BME280;2932;52.400;9.558;2024-02-16T06:52:30;100427.84;;;18.69;58.07
5812;BME280;2932;52.400;9.558;2024-02-16T06:54:55;100418.22;;;18.73;57.97
5812;BME280;2932;52.400;9.558;2024-02-16T06:57:21;100417.34;;;18.80;58.13
5812;BME280;2932;52.400;9.558;2024-02-16T06:59:46;100420.53;;;18.89;57.56
5812;BME280;2932;52.400;9.558;2024-02-16T07:02:12;100414.53;;;18.87;57.47
5812;BME280;2932;52.400;9.558;2024-02-16T07:04:41;100421.75;;;18.84;57.26
5812;BME280;2932;52.400;9.558;2024-02-16T07:07:06;100413.72;;;18.90;57.55
5812;BME280;2932;52.400;9.558;2024-02-16T07:09:31;100425.00;;;18.79;57.72
5812;BME280;2932;52.400;9.558;2024-02-16T07:11:57;100427.41;;;18.74;57.61
5812;BME280;2932;52.400;9.558;2024-02-16T07:14:23;100429.00;;;18.78;57.97
5812;BME280;2932;52.400;9.558;2024-02-16T07:16:49;100437.84;;;18.66;58.17
5812;BME280;2932;52.400;9.558;2024-02-16T07:19:14;100434.63;;;18.57;57.96
5812;BME280;2932;52.400;9.558;2024-02-16T07:21:40;100435.84;;;18.56;58.34
5812;BME280;2932;52.400;9.558;2024-02-16T07:24:06;100438.25;;;18.61;58.09
5812;BME280;2932;52.400;9.558;2024-02-16T07:26:31;100447.44;;;18.58;58.21
5812;BME280;2932;52.400;9.558;2024-02-16T07:28:56;100445.47;;;18.65;57.65
5812;BME280;2932;52.400;9.558;2024-02-16T07:31:21;100443.03;;;18.71;58.06
5812;BME280;2932;52.400;9.558;2024-02-16T07:33:47;100444.66;;;18.54;58.16
5812;BME280;2932;52.400;9.558;2024-02-16T07:36:12;100433.84;;;18.71;58.18
5812;BME280;2932;52.400;9.558;2024-02-16T07:38:39;100434.19;;;18.80;58.11
5812;BME280;2932;52.400;9.558;2024-02-16T07:41:04;100427.75;;;18.83;58.14
5812;BME280;2932;52.400;9.558;2024-02-16T07:43:31;100430.53;;;18.93;57.93
5812;BME280;2932;52.400;9.558;2024-02-16T07:45:56;100428.44;;;19.12;57.58
5812;BME280;2932;52.400;9.558;2024-02-16T07:48:22;100422.78;;;19.19;57.45
5812;BME280;2932;52.400;9.558;2024-02-16T07:50:48;100438.84;;;19.11;57.31
5812;BME280;2932;52.400;9.558;2024-02-16T07:53:15;100432.81;;;19.16;57.61
5812;BME280;2932;52.400;9.558;2024-02-16T07:55:41;100439.25;;;19.10;57.52
5812;BME280;2932;52.400;9.558;2024-02-16T07:58:06;100453.28;;;19.10;57.51
5812;BME280;2932;52.400;9.558;2024-02-16T08:00:32;100446.00;;;19.19;57.51
5812;BME280;2932;52.400;9.558;2024-02-16T08:02:57;100442.88;;;19.10;57.66
5812;BME280;2932;52.400;9.558;2024-02-16T08:05:22;100443.25;;;19.16;57.83
5812;BME280;2932;52.400;9.558;2024-02-16T08:07:49;100451.19;;;19.24;57.72
5812;BME280;2932;52.400;9.558;2024-02-16T08:10:14;100446.34;;;19.28;57.67
5812;BME280;2932;52.400;9.558;2024-02-16T08:12:40;100448.31;;;19.39;57.33
5812;BME280;2932;52.400;9.558;2024-02-16T08:15:06;100439.47;;;19.44;57.42
5812;BME280;2932;52.400;9.558;2024-02-16T08:17:35;100455.47;;;19.47;57.52
5812;BME280;2932;52.400;9.558;2024-02-16T08:20:01;100441.84;;;19.52;57.69
5812;BME280;2932;52.400;9.558;2024-02-16T08:22:26;100441.81;;;19.56;57.23
5812;BME280;2932;52.400;9.558;2024-02-16T08:24:52;100442.50;;;19.71;57.04
5812;BME280;2932;52.400;9.558;2024-02-16T08:27:17;100443.34;;;19.64;56.99
5812;BME280;2932;52.400;9.558;2024-02-16T08:29:43;100448.38;;;19.24;57.43
5812;BME280;2932;52.400;9.558;2024-02-16T08:32:09;100444.88;;;19.10;58.00
5812;BME280;2932;52.400;9.558;2024-02-16T08:34:35;100441.16;;;19.27;57.59
5812;BME280;2932;52.400;9.558;2024-02-16T08:37:02;100444.28;;;19.43;57.18
5812;BME280;2932;52.400;9.558;2024-02-16T08:39:29;100441.94;;;19.27;57.39
5812;BME280;2932;52.400;9.558;2024-02-16T08:41:55;100444.75;;;19.31;56.96
5812;BME280;2932;52.400;9.558;2024-02-16T08:44:20;100441.00;;;19.59;56.84
5812;BME280;2932;52.400;9.558;2024-02-16T08:46:45;100446.53;;;19.66;56.93
5812;BME280;2932;52.400;9.558;2024-02-16T08:49:15;100450.56;;;19.65;56.79
5812;BME280;2932;52.400;9.558;2024-02-16T08:51:40;100449.03;;;19.57;56.84
5812;BME280;2932;52.400;9.558;2024-02-16T08:54:05;100448.28;;;19.42;57.01
5812;BME280;2932;52.400;9.558;2024-02-16T08:56:31;100444.16;;;19.61;56.77
5812;BME280;2932;52.400;9.558;2024-02-16T08:58:57;100439.72;;;19.67;56.77
5812;BME280;2932;52.400;9.558;2024-02-16T09:01:33;100438.47;;;19.72;56.80
5812;BME280;2932;52.400;9.558;2024-02-16T09:03:58;100427.69;;;19.67;56.84
5812;BME280;2932;52.400;9.558;2024-02-16T09:06:24;100432.09;;;19.68;56.87
5812;BME280;2932;52.400;9.558;2024-02-16T09:08:49;100427.19;;;19.79;56.69
5812;BME280;2932;52.400;9.558;2024-02-16T09:11:14;100432.50;;;19.66;57.15
5812;BME280;2932;52.400;9.558;2024-02-16T09:13:40;100435.28;;;19.70;56.89
5812;BME280;2932;52.400;9.558;2024-02-16T09:16:06;100436.75;;;19.88;56.51
5812;BME280;2932;52.400;9.558;2024-02-16T09:18:32;100442.13;;;20.13;56.28
5812;BME280;2932;52.400;9.558;2024-02-16T09:20:58;100446.56;;;20.11;56.32
5812;BME280;2932;52.400;9.558;2024-02-16T09:23:23;100443.91;;;19.96;56.06
5812;BME280;2932;52.400;9.558;2024-02-16T09:25:48;100462.22;;;20.12;56.35
5812;BME280;2932;52.400;9.558;2024-02-16T09:28:15;100466.84;;;19.88;56.79
5812;BME280;2932;52.400;9.558;2024-02-16T09:30:41;100458.50;;;19.77;56.70
5812;BME280;2932;52.400;9.558;2024-02-16T09:33:06;100464.44;;;19.86;56.96
5812;BME280;2932;52.400;9.558;2024-02-16T09:35:34;100469.13;;;20.00;56.79
5812;BME280;2932;52.400;9.558;2024-02-16T09:38:00;100472.69;;;20.08;56.71
5812;BME280;2932;52.400;9.558;2024-02-16T09:40:25;100465.56;;;19.96;57.25
5812;BME280;2932;52.400;9.558;2024-02-16T09:42:51;100473.22;;;19.92;57.13
5812;BME280;2932;52.400;9.558;2024-02-16T09:45:17;100479.63;;;19.96;57.29
5812;BME280;2932;52.400;9.558;2024-02-16T09:47:43;100485.88;;;20.11;57.16
5812;BME280;2932;52.400;9.558;2024-02-16T09:50:10;100493.47;;;20.17;57.25
5812;BME280;2932;52.400;9.558;2024-02-16T09:52:38;100490.28;;;20.15;57.12
5812;BME280;2932;52.400;9.558;2024-02-16T09:55:05;100499.88;;;20.18;56.87
5812;BME280;2932;52.400;9.558;2024-02-16T09:57:32;100500.34;;;20.09;57.17
5812;BME280;2932;52.400;9.558;2024-02-16T09:59:58;100489.72;;;20.31;57.35
5812;BME280;2932;52.400;9.558;2024-02-16T10:02:24;100490.13;;;20.33;56.88
5812;BME280;2932;52.400;9.558;2024-02-16T10:04:49;100490.66;;;20.17;57.24
5812;BME280;2932;52.400;9.558;2024-02-16T10:07:15;100497.81;;;20.25;57.47
5812;BME280;2932;52.400;9.558;2024-02-16T10:09:40;100495.72;;;20.37;57.21
5812;BME280;2932;52.400;9.558;2024-02-16T10:12:06;100495.66;;;20.44;57.19
5812;BME280;2932;52.400;9.558;2024-02-16T10:14:32;100496.00;;;20.49;57.43
5812;BME280;2932;52.400;9.558;2024-02-16T10:17:05;100499.53;;;20.57;57.12
5812;BME280;2932;52.400;9.558;2024-02-16T10:19:31;100499.53;;;20.57;57.36
5812;BME280;2932;52.400;9.558;2024-02-16T10:22:11;100505.84;;;20.68;57.03
5812;BME280;2932;52.400;9.558;2024-02-16T10:24:37;100509.44;;;20.72;57.13
5812;BME280;2932;52.400;9.558;2024-02-16T10:27:14;100513.03;;;20.73;57.00
5812;BME280;2932;52.400;9.558;2024-02-16T10:29:40;100509.00;;;20.74;57.31
5812;BME280;2932;52.400;9.558;2024-02-16T10:32:09;100510.19;;;20.76;57.37
5812;BME280;2932;52.400;9.558;2024-02-16T10:34:36;100516.22;;;20.75;57.56
5812;BME280;2932;52.400;9.558;2024-02-16T10:37:04;100518.44;;;20.90;57.06
5812;BME280;2932;52.400;9.558;2024-02-16T10:39:31;100515.63;;;20.90;56.42
5812;BME280;2932;52.400;9.558;2024-02-16T10:41:58;100513.50;;;21.02;55.97
5812;BME280;2932;52.400;9.558;2024-02-16T10:44:26;100517.41;;;21.11;55.95
5812;BME280;2932;52.400;9.558;2024-02-16T10:46:53;100509.34;;;21.13;55.66
5812;BME280;2932;52.400;9.558;2024-02-16T10:49:18;100513.41;;;21.09;55.56
5812;BME280;2932;52.400;9.558;2024-02-16T10:51:50;100510.28;;;21.03;55.67
5812;BME280;2932;52.400;9.558;2024-02-16T10:54:19;100507.16;;;20.94;55.56
5812;BME280;2932;52.400;9.558;2024-02-16T10:56:47;100509.56;;;21.29;55.44
5812;BME280;2932;52.400;9.558;2024-02-16T10:59:12;100507.41;;;21.41;55.38
5812;BME280;2932;52.400;9.558;2024-02-16T11:04:05;100516.66;;;21.41;55.18
5812;BME280;2932;52.400;9.558;2024-02-16T11:06:53;100522.78;;;21.33;55.24
5812;BME280;2932;52.400;9.558;2024-02-16T11:09:28;100516.31;;;21.02;55.22
5812;BME280;2932;52.400;9.558;2024-02-16T11:12:01;100508.84;;;20.50;56.42
5812;BME280;2932;52.400;9.558;2024-02-16T11:14:44;100513.69;;;20.84;55.98
5812;BME280;2932;52.400;9.558;2024-02-16T11:17:11;100508.97;;;21.11;55.64
5812;BME280;2932;52.400;9.558;2024-02-16T11:19:37;100516.88;;;20.48;57.11
5812;BME280;2932;52.400;9.558;2024-02-16T11:22:06;100510.97;;;21.11;56.39
5812;BME280;2932;52.400;9.558;2024-02-16T11:24:36;100504.06;;;19.99;57.90
5812;BME280;2932;52.400;9.558;2024-02-16T11:27:05;100509.06;;;20.25;57.50
5812;BME280;2932;52.400;9.558;2024-02-16T11:29:32;100502.31;;;20.12;58.32
5812;BME280;2932;52.400;9.558;2024-02-16T11:32:00;100486.72;;;20.90;57.06
5812;BME280;2932;52.400;9.558;2024-02-16T11:34:25;100488.56;;;21.04;56.97
5812;BME280;2932;52.400;9.558;2024-02-16T11:36:55;100498.47;;;20.44;57.48
5812;BME280;2932;52.400;9.558;2024-02-16T11:39:21;100490.94;;;20.75;57.40
5812;BME280;2932;52.400;9.558;2024-02-16T11:41:47;100504.66;;;20.21;58.35
5812;BME280;2932;52.400;9.558;2024-02-16T11:44:15;100494.09;;;20.39;58.56
5812;BME280;2932;52.400;9.558;2024-02-16T11:46:42;100483.84;;;20.59;58.24
5812;BME280;2932;52.400;9.558;2024-02-16T11:49:08;100491.03;;;20.19;58.82
5812;BME280;2932;52.400;9.558;2024-02-16T11:51:33;100487.09;;;20.54;58.63
5812;BME280;2932;52.400;9.558;2024-02-16T11:53:59;100484.97;;;20.24;58.82
5812;BME280;2932;52.400;9.558;2024-02-16T11:56:25;100504.50;;;20.42;58.87
5812;BME280;2932;52.400;9.558;2024-02-16T11:58:54;100505.50;;;20.62;58.15
5812;BME280;2932;52.400;9.558;2024-02-16T12:01:20;100521.84;;;20.75;58.37
5812;BME280;2932;52.400;9.558;2024-02-16T12:03:46;100534.88;;;20.58;58.74
5812;BME280;2932;52.400;9.558;2024-02-16T12:06:19;100520.75;;;20.65;58.42
5812;BME280;2932;52.400;9.558;2024-02-16T12:08:46;100514.34;;;20.61;58.64
5812;BME280;2932;52.400;9.558;2024-02-16T12:11:11;100522.53;;;20.45;59.11
5812;BME280;2932;52.400;9.558;2024-02-16T12:13:37;100523.28;;;20.52;58.83
5812;BME280;2932;52.400;9.558;2024-02-16T12:16:02;100516.25;;;20.71;58.91
5812;BME280;2932;52.400;9.558;2024-02-16T12:18:28;100524.75;;;20.19;59.54
5812;BME280;2932;52.400;9.558;2024-02-16T12:21:04;100541.81;;;20.84;59.00
5812;BME280;2932;52.400;9.558;2024-02-16T12:23:31;100533.88;;;20.79;58.39
5812;BME280;2932;52.400;9.558;2024-02-16T12:26:00;100536.47;;;20.59;59.40
5812;BME280;2932;52.400;9.558;2024-02-16T12:28:27;100534.44;;;20.97;58.54
5812;BME280;2932;52.400;9.558;2024-02-16T12:30:54;100539.19;;;21.04;58.70
5812;BME280;2932;52.400;9.558;2024-02-16T12:33:23;100546.72;;;21.48;57.80
5812;BME280;2932;52.400;9.558;2024-02-16T12:35:49;100542.25;;;21.50;58.06
5812;BME280;2932;52.400;9.558;2024-02-16T12:38:15;100541.13;;;21.44;58.43
5812;BME280;2932;52.400;9.558;2024-02-16T12:40:42;100551.72;;;21.33;58.58
5812;BME280;2932;52.400;9.558;2024-02-16T12:43:08;100554.41;;;21.10;58.60
5812;BME280;2932;52.400;9.558;2024-02-16T12:45:36;100560.94;;;21.00;58.94
5812;BME280;2932;52.400;9.558;2024-02-16T12:48:01;100553.06;;;20.84;58.74
5812;BME280;2932;52.400;9.558;2024-02-16T12:50:27;100563.44;;;20.90;59.02
5812;BME280;2932;52.400;9.558;2024-02-16T12:52:52;100568.00;;;21.15;58.61
5812;BME280;2932;52.400;9.558;2024-02-16T12:55:17;100565.66;;;21.10;58.99
5812;BME280;2932;52.400;9.558;2024-02-16T12:57:43;100576.25;;;21.33;58.35
5812;BME280;2932;52.400;9.558;2024-02-16T13:00:08;100574.81;;;21.17;58.68
5812;BME280;2932;52.400;9.558;2024-02-16T13:02:34;100568.28;;;20.90;59.36
5812;BME280;2932;52.400;9.558;2024-02-16T13:04:59;100571.25;;;20.76;59.94
5812;BME280;2932;52.400;9.558;2024-02-16T13:07:24;100576.19;;;21.02;59.90